COYOTE (LAKE MENDOCINO) (COY)

Elevation: 720' · RUSSIAN R basin · Operator: US Army Corps of Engineers

Provisional data, subject to change.
Query executed Sunday at 12:05:19   clock

Select a sensor type for a plot of data.
Note: Reservoir Flows are daily averages.

Earlier

Date RES ELE    STORAGE    RES CHG    TOC STO    ABV TOC    OUTFLOW    INFLOW    PPT INC    TEMP MN    TEMP MX    EVP PAN   
 FEET   AF   AF   AF   AF   CFS   CFS   INCHES   DEG F   DEG F   INCHES  
08/26/2016 736.94 67477 -349 86370 -18893 218 56 0.00 12 31 0.24
08/27/2016 736.74 67146 -331 86370 -19224 218 64 0.00 13 31 0.22
08/28/2016 736.55 66831 -315 86370 -19539 218 73 0.00 12 33 0.24
08/29/2016 736.36 66518 -313 86370 -19852 214 67 0.00 12 28 0.19
08/30/2016 736.15 66171 -347 86370 -20199 213 52 0.00 14 31 0.25
08/31/2016 735.97 65875 -296 86370 -20495 219 85 0.00 11 30 0.24
09/01/2016 735.74 65497 -378 86370 -20873 227 50 0.01 11 31 0.23
09/02/2016 735.51 65119 -378 86370 -21251 233 57 0.00 11 30 0.23
09/03/2016 735.29 64758 -361 86370 -21612 233 65 0.00 11 28 0.22
09/04/2016 735.07 64399 -359 86370 -21971 230 62 0.00 10 26 0.22
09/05/2016 734.85 64039 -360 86370 -22331 226 59 0.00 8 31 0.23
09/06/2016 734.65 63713 -326 86370 -22657 221 71 0.00 10 32 0.24
09/07/2016 734.44 63372 -341 86370 -22998 218 60 0.02 12 36 0.24
09/08/2016 734.25 63063 -309 86370 -23307 210 68 0.00 13 35 0.24
09/09/2016 734.06 62754 -309 86370 -23616 204 62 0.00 11 37 0.24
09/10/2016 733.86 62430 -324 86370 -23940 188 38 0.00 12 36 0.23
09/11/2016 733.68 62139 -291 86370 -24231 196 64 0.00 11 32 0.23
09/12/2016 733.48 61816 -323 86370 -24554 194 43 0.00 10 27 0.20
09/13/2016 733.31 61542 -274 86370 -24828 163 36 0.00 10 28 0.19
09/14/2016 733.18 61333 -209 86370 -25037 124 30 0.00 8 30 0.20
09/15/2016 732.99 61027 -306 86370 -25343 188 47 0.00 8 31 0.22
09/16/2016 732.80 60722 -305 86370 -25648 188 49 0.00 8 36 0.24
09/17/2016 732.61 60417 -305 86370 -25953 188 48 0.00 10 38 0.23
09/18/2016 732.41 60097 -320 86370 -26273 188 41 0.00 14 36 0.23
09/19/2016 732.22 59794 -303 86370 -26576 188 49 0.00 15 36 0.22
09/20/2016 732.03 59491 -303 86370 -26879 189 49 0.00 11 31 0.22
09/21/2016 731.83 59173 -318 86370 -27197 189 40 0.00 12 24 0.19
09/22/2016 731.63 58855 -318 86370 -27515 189 39 0.00 9 23 0.17
09/23/2016 731.44 58554 -301 86370 -27816 189 47 0.00 7 26 0.17
09/24/2016 731.28 58301 -253 86370 -28069 187 72 0.04 11 35 0.21
09/25/2016 -- -- -- -- -- -- -- -- -- -- --

Later | Latest

Warning! This data is preliminary and subject to revision.

Show COY Map | Plot COY Data | 1 Month COY Data | Real-Time COY Data | COY Info